createdAt,value
2019-05-20T00:01:23.720Z,58.74
2019-05-20T00:03:53.369Z,58.81
2019-05-20T00:06:23.071Z,58.89
2019-05-20T00:08:52.723Z,58.95
2019-05-20T00:11:22.412Z,59.02
2019-05-20T00:13:52.069Z,59.11
2019-05-20T00:16:21.729Z,59.19
2019-05-20T00:18:51.536Z,59.31
2019-05-20T00:21:21.195Z,59.40
2019-05-20T00:23:50.871Z,59.49
2019-05-20T00:26:20.528Z,59.60
2019-05-20T00:28:50.289Z,59.66
2019-05-20T00:31:25.237Z,59.75
2019-05-20T00:33:54.882Z,59.85
2019-05-20T00:36:26.586Z,59.94
2019-05-20T00:39:13.984Z,60.04
2019-05-20T00:41:44.192Z,60.12
2019-05-20T00:44:13.851Z,60.19
2019-05-20T00:46:43.510Z,60.28
2019-05-20T00:49:13.224Z,60.36
2019-05-20T00:51:43.621Z,60.45
2019-05-20T00:54:13.193Z,60.52
2019-05-20T00:56:42.833Z,60.62
2019-05-20T00:59:12.397Z,60.70
2019-05-20T01:01:41.955Z,60.78
2019-05-20T01:04:11.458Z,60.85
2019-05-20T01:06:40.954Z,60.91
2019-05-20T01:09:10.645Z,60.98
2019-05-20T01:11:40.488Z,61.07
2019-05-20T01:14:10.053Z,61.14
2019-05-20T01:16:39.851Z,61.21
2019-05-20T01:19:09.413Z,61.25
2019-05-20T01:21:38.822Z,61.31
2019-05-20T01:24:08.346Z,61.36
2019-05-20T01:26:37.762Z,61.41
2019-05-20T01:29:07.382Z,61.49
2019-05-20T01:31:38.281Z,61.53
2019-05-20T01:34:08.049Z,61.56
2019-05-20T01:36:37.551Z,61.59
2019-05-20T01:39:07.536Z,61.66
2019-05-20T01:41:37.159Z,61.73
2019-05-20T01:44:06.794Z,61.77
2019-05-20T01:46:36.291Z,61.81
2019-05-20T01:49:05.877Z,61.84
2019-05-20T01:51:35.293Z,61.84
2019-05-20T01:54:04.857Z,61.86
2019-05-20T01:56:34.467Z,61.88
2019-05-20T01:59:03.993Z,61.88
2019-05-20T02:01:33.401Z,61.85
2019-05-20T02:04:03.957Z,61.84
2019-05-20T02:06:33.375Z,61.85
2019-05-20T02:09:03.003Z,61.83
2019-05-20T02:11:32.786Z,61.83
2019-05-20T02:14:03.995Z,61.81
2019-05-20T02:16:33.475Z,61.77
2019-05-20T02:19:03.053Z,61.75
2019-05-20T02:21:32.606Z,61.74
2019-05-20T02:24:02.164Z,61.71
2019-05-20T02:26:31.656Z,61.73
2019-05-20T02:29:01.072Z,61.78
2019-05-20T02:31:30.570Z,61.77
2019-05-20T02:34:00.172Z,61.80
2019-05-20T02:36:29.665Z,61.83
2019-05-20T02:38:59.221Z,61.86
2019-05-20T02:41:28.710Z,61.87
2019-05-20T02:43:58.207Z,61.88
2019-05-20T02:46:27.758Z,61.93
2019-05-20T02:48:57.314Z,61.95
2019-05-20T02:51:32.834Z,61.98
2019-05-20T02:54:03.226Z,62.02
2019-05-20T02:56:32.804Z,62.09
2019-05-20T02:59:02.586Z,62.14
2019-05-20T03:01:32.160Z,62.22
2019-05-20T03:04:11.568Z,62.26
2019-05-20T03:06:33.313Z,62.35
2019-05-20T03:09:03.075Z,62.41
2019-05-20T03:11:32.632Z,62.49
2019-05-20T03:14:03.299Z,62.55
2019-05-20T03:16:32.843Z,62.62
2019-05-20T03:19:02.582Z,62.69
2019-05-20T03:21:32.268Z,62.74
2019-05-20T03:24:01.693Z,62.80
2019-05-20T03:26:31.187Z,62.86
2019-05-20T03:29:00.706Z,62.92
2019-05-20T03:31:30.317Z,63.02
2019-05-20T03:33:59.899Z,63.08
2019-05-20T03:36:29.429Z,63.13
2019-05-20T03:38:58.919Z,63.20
2019-05-20T03:41:28.333Z,63.27
2019-05-20T03:43:57.950Z,63.33
2019-05-20T03:46:27.506Z,63.41
2019-05-20T03:48:57.057Z,63.46
2019-05-20T03:51:26.672Z,63.54
2019-05-20T03:53:56.229Z,63.61
2019-05-20T03:56:25.712Z,63.68
2019-05-20T03:58:55.318Z,63.73
2019-05-20T04:01:24.765Z,63.79
2019-05-20T04:03:56.040Z,63.84
2019-05-20T04:06:25.699Z,63.88
2019-05-20T04:09:07.189Z,63.92
2019-05-20T04:11:49.865Z,63.96
2019-05-20T04:14:22.286Z,64.03
2019-05-20T04:16:56.389Z,64.08
2019-05-20T04:22:38.243Z,64.19
2019-05-20T04:25:08.105Z,64.30
2019-05-20T04:27:37.876Z,64.33
2019-05-20T04:30:11.525Z,64.39
2019-05-20T04:32:41.141Z,64.44
2019-05-20T04:35:22.063Z,64.50
2019-05-20T04:38:07.372Z,64.54
2019-05-20T04:40:37.092Z,64.55
2019-05-20T04:43:06.765Z,64.60
2019-05-20T04:45:36.463Z,64.64
2019-05-20T04:48:30.295Z,64.64
2019-05-20T04:50:58.867Z,64.64
2019-05-20T04:53:28.482Z,64.63
2019-05-20T04:55:58.100Z,64.65
2019-05-20T04:58:36.579Z,64.68
2019-05-20T05:01:35.523Z,64.72
2019-05-20T05:03:45.561Z,64.79
2019-05-20T05:06:16.927Z,64.83
2019-05-20T05:08:54.182Z,64.83
2019-05-20T05:11:26.815Z,64.87
2019-05-20T05:13:57.679Z,64.87
2019-05-20T05:16:28.227Z,64.92
2019-05-20T05:18:57.929Z,64.94
2019-05-20T05:21:27.486Z,64.95
2019-05-20T05:23:59.540Z,64.96
2019-05-20T05:26:29.763Z,64.97
2019-05-20T05:29:19.895Z,64.94
2019-05-20T05:31:37.096Z,64.93
2019-05-20T05:34:08.266Z,64.91
2019-05-20T05:36:38.876Z,64.86
2019-05-20T05:39:08.576Z,64.79
2019-05-20T05:41:38.206Z,64.72
2019-05-20T05:44:08.019Z,64.64
2019-05-20T05:46:37.639Z,64.56
2019-05-20T05:49:07.402Z,64.47
2019-05-20T05:51:36.982Z,64.34
2019-05-20T05:54:07.607Z,64.18
2019-05-20T05:56:37.203Z,64.02
2019-05-20T05:59:11.921Z,63.90
2019-05-20T06:01:41.525Z,63.84
2019-05-20T06:04:11.226Z,63.73
2019-05-20T06:06:40.857Z,63.59
2019-05-20T06:09:10.641Z,63.49
2019-05-20T06:11:50.234Z,63.37
2019-05-20T06:14:19.890Z,63.22
2019-05-20T06:16:55.191Z,63.13
2019-05-20T06:19:27.805Z,63.01
2019-05-20T06:22:10.241Z,62.95
2019-05-20T06:24:39.783Z,62.84
2019-05-20T06:27:09.482Z,62.72
2019-05-20T06:29:39.175Z,62.60
2019-05-20T06:32:08.800Z,62.45
2019-05-20T06:34:38.428Z,62.30
2019-05-20T06:37:12.929Z,62.20
2019-05-20T06:39:51.332Z,62.03
2019-05-20T06:42:21.205Z,61.86
2019-05-20T06:44:55.023Z,61.71
2019-05-20T06:47:23.460Z,61.56
2019-05-20T06:49:54.103Z,61.43
2019-05-20T06:52:35.280Z,61.33
2019-05-20T06:54:55.147Z,61.24
2019-05-20T06:57:24.891Z,61.11
2019-05-20T06:59:54.592Z,60.97
2019-05-20T07:02:25.562Z,60.94
2019-05-20T07:04:55.194Z,60.79
2019-05-20T07:07:24.771Z,60.65
2019-05-20T07:09:54.396Z,60.51
2019-05-20T07:12:40.571Z,60.45
2019-05-20T07:15:01.299Z,60.22
2019-05-20T07:17:32.459Z,60.17
2019-05-20T07:20:02.342Z,60.07
2019-05-20T07:23:09.214Z,60.00
2019-05-20T07:25:36.838Z,59.87
2019-05-20T07:28:08.014Z,59.78
2019-05-20T07:30:39.178Z,59.73
2019-05-20T07:33:08.831Z,59.63
2019-05-20T07:35:38.483Z,59.50
2019-05-20T07:38:08.147Z,59.40
2019-05-20T07:40:37.728Z,59.30
2019-05-20T07:43:07.341Z,59.13
2019-05-20T07:45:39.832Z,59.01
2019-05-20T07:48:09.474Z,58.98
2019-05-20T07:50:46.142Z,58.94
2019-05-20T07:53:13.833Z,58.82
2019-05-20T07:56:02.985Z,58.70
2019-05-20T07:58:35.923Z,58.67
2019-05-20T08:01:05.645Z,58.57
2019-05-20T08:03:38.612Z,58.45
2019-05-20T08:06:08.214Z,58.43
2019-05-20T08:08:39.567Z,58.31
2019-05-20T08:11:09.303Z,58.21
2019-05-20T08:13:42.598Z,58.17
2019-05-20T08:16:11.969Z,58.10
2019-05-20T08:18:43.040Z,58.04
2019-05-20T08:21:12.706Z,57.99
2019-05-20T08:23:44.618Z,57.87
2019-05-20T08:26:14.391Z,57.69
2019-05-20T08:28:46.060Z,57.55
2019-05-20T08:31:15.737Z,57.43
2019-05-20T08:33:45.408Z,57.30
2019-05-20T08:36:15.032Z,57.15
2019-05-20T08:38:44.666Z,56.97
2019-05-20T08:41:15.686Z,56.87
2019-05-20T08:43:45.310Z,56.75
2019-05-20T08:46:14.942Z,56.65
2019-05-20T08:48:45.857Z,56.61
2019-05-20T08:51:15.439Z,56.51
2019-05-20T08:53:45.198Z,56.46
2019-05-20T08:56:14.903Z,56.29
2019-05-20T08:58:44.654Z,56.20
2019-05-20T09:01:14.360Z,56.09
2019-05-20T09:03:44.056Z,55.95
2019-05-20T09:06:13.648Z,55.84
2019-05-20T09:08:43.358Z,55.73
2019-05-20T09:11:12.982Z,55.57
2019-05-20T09:13:42.631Z,55.47
2019-05-20T09:16:13.635Z,55.41
2019-05-20T09:18:43.261Z,55.32
2019-05-20T09:21:13.006Z,55.19
2019-05-20T09:23:42.637Z,55.08
2019-05-20T09:26:12.267Z,54.95
2019-05-20T09:28:42.253Z,54.82
2019-05-20T09:31:11.931Z,54.73
2019-05-20T09:33:41.563Z,54.61
2019-05-20T09:36:11.228Z,54.52
2019-05-20T09:38:41.016Z,54.43
2019-05-20T09:41:10.700Z,54.36
2019-05-20T09:43:40.359Z,54.30
2019-05-20T09:46:10.233Z,54.22
2019-05-20T09:48:40.102Z,54.13
2019-05-20T09:51:09.666Z,54.07
2019-05-20T09:53:39.381Z,54.03
2019-05-20T09:56:08.854Z,54.00
2019-05-20T09:58:38.337Z,53.90
2019-05-20T10:01:08.418Z,53.85
2019-05-20T10:03:38.135Z,53.78
2019-05-20T10:06:07.757Z,53.72
2019-05-20T10:08:43.508Z,53.67
2019-05-20T10:11:09.070Z,53.61
2019-05-20T10:13:38.665Z,53.57
2019-05-20T10:16:08.224Z,53.54
2019-05-20T10:18:39.322Z,53.47
2019-05-20T10:21:13.028Z,53.42
2019-05-20T10:23:42.682Z,53.37
2019-05-20T10:26:12.254Z,53.38
2019-05-20T10:28:46.515Z,53.37
2019-05-20T10:31:13.699Z,53.32
2019-05-20T10:33:43.374Z,53.22
2019-05-20T10:36:13.061Z,53.24
2019-05-20T10:38:57.636Z,53.31
2019-05-20T10:41:13.975Z,53.41
2019-05-20T10:43:43.614Z,53.54
2019-05-20T10:46:13.198Z,53.71
2019-05-20T10:48:42.954Z,53.94
2019-05-20T10:51:12.610Z,54.22
2019-05-20T10:53:42.104Z,54.48
2019-05-20T10:56:13.548Z,54.74
2019-05-20T10:58:43.563Z,54.97
2019-05-20T11:01:13.239Z,55.14
2019-05-20T11:03:43.005Z,55.37
2019-05-20T11:06:12.728Z,55.59
2019-05-20T11:09:25.419Z,55.82
2019-05-20T11:15:16.822Z,56.31
2019-05-20T11:17:46.600Z,56.58
2019-05-20T11:20:16.592Z,56.78
2019-05-20T11:25:52.838Z,57.14
2019-05-20T11:28:22.705Z,57.34
2019-05-20T11:31:01.905Z,57.49
2019-05-20T11:33:33.304Z,57.70
2019-05-20T11:36:05.935Z,57.90
2019-05-20T11:38:57.434Z,58.04
2019-05-20T11:41:52.260Z,58.19
2019-05-20T11:44:04.298Z,58.36
2019-05-20T11:46:42.827Z,58.48
2019-05-20T11:49:09.014Z,58.58
2019-05-20T11:51:38.613Z,58.71
2019-05-20T11:54:23.025Z,58.80
2019-05-20T11:58:38.683Z,58.90
2019-05-20T11:59:31.441Z,59.04
2019-05-20T12:02:04.084Z,59.17
2019-05-20T12:04:36.887Z,59.26
2019-05-20T12:07:08.776Z,59.37
2019-05-20T12:16:15.270Z,59.63
2019-05-20T12:18:45.312Z,59.76
2019-05-20T12:21:16.379Z,59.87
2019-05-20T12:23:46.097Z,59.98
2019-05-20T12:26:15.734Z,60.06
2019-05-20T12:28:45.539Z,60.24
2019-05-20T12:31:15.531Z,60.40
2019-05-20T12:33:45.435Z,60.59
2019-05-20T12:36:14.921Z,60.75
2019-05-20T12:38:44.638Z,60.92
2019-05-20T12:41:14.130Z,61.08
2019-05-20T12:43:45.011Z,61.26
2019-05-20T12:46:14.911Z,61.45
2019-05-20T12:48:44.694Z,61.65
2019-05-20T12:51:14.847Z,61.81
2019-05-20T12:53:44.615Z,62.02
2019-05-20T12:56:14.191Z,62.23
2019-05-20T12:58:43.814Z,62.43
2019-05-20T13:01:13.375Z,62.62
2019-05-20T13:03:42.945Z,62.79
2019-05-20T13:06:12.615Z,62.95
2019-05-20T13:08:47.423Z,63.13
2019-05-20T13:11:17.697Z,63.28
2019-05-20T13:13:51.031Z,63.46
2019-05-20T13:16:25.968Z,63.64
2019-05-20T13:18:56.679Z,63.81
2019-05-20T13:21:54.975Z,64.02
2019-05-20T13:24:47.512Z,64.17
2019-05-20T13:27:17.911Z,64.35
2019-05-20T13:29:47.472Z,64.48
2019-05-20T13:32:18.704Z,64.63
2019-05-20T13:34:50.039Z,64.78
2019-05-20T13:37:19.770Z,64.86
2019-05-20T13:40:02.872Z,64.91
2019-05-20T13:42:24.117Z,65.01
2019-05-20T13:44:53.714Z,65.04
2019-05-20T13:47:23.363Z,65.05
2019-05-20T13:50:00.419Z,65.11
2019-05-20T13:52:40.978Z,65.10
2019-05-20T13:55:11.117Z,65.16
2019-05-20T13:57:43.756Z,65.14
2019-05-20T14:00:13.595Z,65.19
2019-05-20T14:02:43.399Z,65.19
2019-05-20T14:07:48.113Z,65.20
2019-05-20T14:10:17.799Z,65.19
2019-05-20T14:12:47.405Z,65.16
2019-05-20T14:15:16.964Z,65.18
2019-05-20T14:17:51.419Z,65.21
2019-05-20T14:20:21.180Z,65.08
2019-05-20T14:22:57.787Z,64.94
2019-05-20T14:25:29.411Z,64.88
2019-05-20T14:27:59.146Z,64.73
2019-05-20T14:30:28.871Z,64.62
2019-05-20T14:33:00.397Z,64.51
2019-05-20T14:35:31.712Z,64.46
2019-05-20T14:38:01.253Z,64.40
2019-05-20T14:40:31.168Z,64.33
2019-05-20T14:43:00.832Z,64.32
2019-05-20T14:45:31.965Z,64.29
2019-05-20T14:48:03.325Z,64.27
2019-05-20T14:50:32.858Z,64.17
2019-05-20T14:53:02.479Z,64.15
2019-05-20T14:55:41.839Z,64.18
2019-05-20T14:58:03.359Z,64.20
2019-05-20T15:00:32.864Z,64.23
2019-05-20T15:03:02.341Z,64.33
2019-05-20T15:05:31.937Z,64.42
2019-05-20T15:08:01.558Z,64.52
2019-05-20T15:10:31.126Z,64.63
2019-05-20T15:13:00.778Z,64.76
2019-05-20T15:15:30.375Z,64.87
2019-05-20T15:18:00.422Z,64.96
2019-05-20T15:20:30.042Z,65.03
2019-05-20T15:22:59.916Z,65.04
2019-05-20T15:25:29.349Z,65.08
2019-05-20T15:28:00.149Z,65.10
2019-05-20T15:30:29.702Z,65.08
2019-05-20T15:32:59.335Z,65.10
2019-05-20T15:35:28.887Z,65.07
2019-05-20T15:37:58.686Z,65.04
2019-05-20T15:40:28.278Z,64.98
2019-05-20T15:42:58.103Z,64.94
2019-05-20T15:45:30.591Z,64.87
2019-05-20T15:48:00.288Z,64.78
2019-05-20T15:50:29.888Z,64.71
2019-05-20T15:52:59.326Z,64.73
2019-05-20T15:55:28.742Z,64.72
2019-05-20T15:57:58.409Z,64.73
2019-05-20T16:00:29.066Z,64.72
2019-05-20T16:02:58.458Z,64.71
2019-05-20T16:05:28.087Z,64.71
2019-05-20T16:07:57.583Z,64.65
2019-05-20T16:10:27.247Z,64.64
2019-05-20T16:12:56.921Z,64.60
2019-05-20T16:15:26.581Z,64.52
2019-05-20T16:17:56.069Z,64.47
2019-05-20T16:20:25.835Z,64.43
2019-05-20T16:22:55.343Z,64.35
2019-05-20T16:25:24.764Z,64.33
2019-05-20T16:27:54.539Z,64.29
2019-05-20T16:30:24.192Z,64.24
2019-05-20T16:32:53.758Z,64.20
2019-05-20T16:35:23.458Z,64.20
2019-05-20T16:37:53.009Z,64.20
2019-05-20T16:40:22.642Z,64.18
2019-05-20T16:42:55.156Z,64.18
2019-05-20T16:45:25.184Z,64.23
2019-05-20T16:47:54.741Z,64.23
2019-05-20T16:50:24.378Z,64.27
2019-05-20T16:52:53.956Z,64.31
2019-05-20T16:55:23.831Z,64.35
2019-05-20T16:57:54.303Z,64.36
2019-05-20T17:00:31.961Z,64.39
2019-05-20T17:02:59.867Z,64.40
2019-05-20T17:05:29.578Z,64.38
2019-05-20T17:07:59.159Z,64.42
2019-05-20T17:10:28.785Z,64.46
2019-05-20T17:12:58.540Z,64.44
2019-05-20T17:15:28.087Z,64.47
2019-05-20T17:17:57.498Z,64.46
2019-05-20T17:20:27.317Z,64.41
2019-05-20T17:22:56.976Z,64.39
2019-05-20T17:25:26.629Z,64.42
2019-05-20T17:27:56.184Z,64.42
2019-05-20T17:30:25.673Z,64.43
2019-05-20T17:32:55.207Z,64.46
2019-05-20T17:35:24.761Z,64.50
2019-05-20T17:37:55.426Z,64.53
2019-05-20T17:40:25.354Z,64.63
2019-05-20T17:42:54.983Z,64.72
2019-05-20T17:45:24.674Z,64.81
2019-05-20T17:47:54.244Z,64.92
2019-05-20T17:50:23.900Z,65.03
2019-05-20T17:52:54.393Z,65.14
2019-05-20T17:55:24.331Z,65.24
2019-05-20T17:57:55.169Z,65.33
2019-05-20T18:00:24.862Z,65.40
2019-05-20T18:02:55.577Z,65.50
2019-05-20T18:05:25.303Z,65.61
2019-05-20T18:07:56.280Z,65.67
2019-05-20T18:10:26.129Z,65.75
2019-05-20T18:12:55.981Z,65.85
2019-05-20T18:15:25.708Z,65.95
2019-05-20T18:17:55.341Z,66.05
2019-05-20T18:20:25.074Z,66.17
2019-05-20T18:22:54.751Z,66.27
2019-05-20T18:25:24.192Z,66.34
2019-05-20T18:27:54.873Z,66.47
2019-05-20T18:30:25.017Z,66.53
2019-05-20T18:32:54.574Z,66.60
2019-05-20T18:35:24.310Z,66.69
2019-05-20T18:37:53.920Z,66.76
2019-05-20T18:40:23.569Z,66.83
2019-05-20T18:42:53.054Z,66.83
2019-05-20T18:45:22.486Z,66.88
2019-05-20T18:47:52.038Z,66.95
2019-05-20T18:50:21.828Z,66.99
2019-05-20T18:52:51.412Z,67.04
2019-05-20T18:55:20.952Z,67.12
2019-05-20T19:35:56.726Z,67.87
2019-05-20T19:38:26.469Z,67.92
2019-05-20T19:40:55.958Z,67.97
2019-05-20T19:43:25.812Z,68.07
2019-05-20T19:45:55.239Z,68.13
2019-05-20T19:48:25.012Z,68.18
2019-05-20T19:50:54.651Z,68.24
2019-05-20T19:53:24.510Z,68.31
2019-05-20T19:55:54.071Z,68.38
2019-05-20T19:58:23.629Z,68.45
2019-05-20T20:00:56.553Z,68.52
2019-05-20T20:03:24.564Z,68.61
2019-05-20T20:05:53.976Z,68.66
2019-05-20T20:08:23.533Z,68.75
2019-05-20T20:10:53.148Z,68.82
2019-05-20T20:13:22.787Z,68.91
2019-05-20T20:15:52.426Z,69.00
2019-05-20T20:18:21.920Z,69.09
2019-05-20T20:20:53.174Z,69.16
2019-05-20T20:23:25.075Z,69.23
2019-05-20T20:25:54.655Z,69.29
2019-05-20T20:28:24.240Z,69.35
2019-05-20T20:30:53.814Z,69.45
2019-05-20T20:33:23.307Z,69.52
2019-05-20T20:35:52.802Z,69.57
2019-05-20T20:38:22.375Z,69.65
2019-05-20T20:40:51.938Z,69.73
2019-05-20T20:43:21.531Z,69.81
2019-05-20T20:45:51.084Z,69.89
2019-05-20T20:48:20.922Z,69.97
2019-05-20T20:50:50.487Z,70.07
2019-05-20T20:53:20.058Z,70.15
2019-05-20T20:55:49.542Z,70.22
2019-05-20T20:58:19.076Z,70.29
2019-05-20T21:00:48.498Z,70.35
2019-05-20T21:03:18.061Z,70.41
2019-05-20T21:05:47.703Z,70.50
2019-05-20T21:08:17.192Z,70.59
2019-05-20T21:10:46.610Z,70.66
2019-05-20T21:13:16.102Z,70.73
2019-05-20T21:15:45.857Z,70.82
2019-05-20T21:18:15.364Z,70.88
2019-05-20T21:20:44.874Z,70.97
2019-05-20T21:23:14.361Z,71.02
2019-05-20T21:25:44.071Z,71.10
2019-05-20T21:28:13.586Z,71.16
2019-05-20T21:30:43.081Z,71.23
2019-05-20T21:33:12.572Z,71.30
2019-05-20T21:35:45.180Z,71.37
2019-05-20T21:38:13.175Z,71.45
2019-05-20T21:40:42.747Z,71.47
2019-05-20T21:43:12.305Z,71.53
2019-05-20T21:45:41.731Z,71.58
2019-05-20T21:48:11.148Z,71.66
2019-05-20T21:50:40.705Z,71.72
2019-05-20T21:53:10.200Z,71.80
2019-05-20T21:55:39.625Z,71.85
2019-05-20T21:58:09.081Z,71.95
2019-05-20T22:00:54.946Z,72.00
2019-05-20T22:03:26.007Z,72.05
2019-05-20T22:05:56.584Z,72.16
2019-05-20T22:08:26.150Z,72.21
2019-05-20T22:10:55.641Z,72.28
2019-05-20T22:13:25.105Z,72.36
2019-05-20T22:15:54.494Z,72.45
2019-05-20T22:18:23.924Z,72.52
2019-05-20T22:20:53.971Z,72.58
2019-05-20T22:23:25.251Z,72.68
2019-05-20T22:25:55.066Z,72.74
2019-05-20T22:28:24.618Z,72.81
2019-05-20T22:30:54.192Z,72.87
2019-05-20T22:33:23.740Z,72.96
2019-05-20T22:35:53.716Z,73.02
2019-05-20T22:38:23.286Z,73.08
2019-05-20T22:40:52.896Z,73.13
2019-05-20T22:43:22.389Z,73.22
2019-05-20T22:45:52.125Z,73.28
2019-05-20T22:48:21.833Z,73.31
2019-05-20T22:50:51.427Z,73.36
2019-05-20T22:53:20.995Z,73.44
2019-05-20T22:55:50.745Z,73.50
2019-05-20T22:58:20.238Z,73.56
2019-05-20T23:00:50.937Z,73.61
2019-05-20T23:03:22.310Z,73.67
2019-05-20T23:05:51.884Z,73.75
2019-05-20T23:08:21.563Z,73.78
2019-05-20T23:10:51.123Z,73.87
2019-05-20T23:13:20.596Z,73.92
2019-05-20T23:15:50.309Z,74.00
2019-05-20T23:18:19.921Z,74.07
2019-05-20T23:20:49.811Z,74.17
2019-05-20T23:23:19.350Z,74.25
2019-05-20T23:25:49.104Z,74.34
2019-05-20T23:28:20.286Z,74.40
2019-05-20T23:30:49.727Z,74.45
2019-05-20T23:33:19.211Z,74.53
2019-05-20T23:35:48.954Z,74.60
2019-05-20T23:38:18.383Z,74.67
2019-05-20T23:40:47.874Z,74.74
2019-05-20T23:43:17.356Z,74.78
2019-05-20T23:45:46.897Z,74.87
2019-05-20T23:48:16.463Z,74.92
2019-05-20T23:50:45.880Z,75.00
2019-05-20T23:53:17.237Z,75.03
2019-05-20T23:55:46.791Z,75.09
2019-05-20T23:58:16.358Z,75.13
